Time;durP1;ratioP1;P1;durP2;ratioP2;P2;SDS_P1;SDS_P2;PMS_P1;PMS_P2;Temp;Humidity;BMP_temperature;BMP_pressure;BME280_temperature;BME280_humidity;BME280_pressure;Samples;Min_cycle;Max_cycle;Signal;HPM_P1;HPM_P2
2022/03/13 00:00:24;;;;;;;6.95;6.07;;;18.10;52.20;;;;;;4971006;28;92620;-68
2022/03/13 00:02:52;;;;;;;7.85;6.30;;;18.10;52.10;;;;;;4974185;28;92567;-69
2022/03/13 00:05:18;;;;;;;7.13;6.30;;;18.10;52.10;;;;;;4957577;28;94097;-69
2022/03/13 00:07:45;;;;;;;6.80;6.10;;;18.10;52.10;;;;;;4975237;28;93121;-69
2022/03/13 00:10:11;;;;;;;7.80;6.45;;;18.00;52.00;;;;;;4974165;28;93191;-69
2022/03/13 00:12:37;;;;;;;7.80;6.10;;;18.10;52.00;;;;;;4958277;28;91866;-69
2022/03/13 00:15:10;;;;;;;6.32;5.72;;;18.00;52.00;;;;;;4975420;28;94750;-70
2022/03/13 00:17:36;;;;;;;;;;;18.00;52.00;;;;;;4973547;28;94520;-69
2022/03/13 00:20:05;;;;;;;6.30;5.70;;;18.00;52.00;;;;;;4973172;28;95416;-70
2022/03/13 00:22:31;;;;;;;7.82;6.47;;;18.00;52.10;;;;;;4972449;28;92583;-70
2022/03/13 00:25:03;;;;;;;6.55;5.90;;;18.00;52.00;;;;;;4972183;28;93140;-69
2022/03/13 00:27:31;;;;;;;6.63;6.00;;;18.00;52.00;;;;;;4972013;28;95227;-69
2022/03/13 00:29:57;;;;;;;8.38;6.30;;;18.00;52.00;;;;;;4972877;28;92497;-69
2022/03/13 00:32:23;;;;;;;6.32;5.72;;;18.00;52.00;;;;;;4954448;28;93964;-69
2022/03/13 00:34:49;;;;;;;7.18;6.13;;;18.00;52.00;;;;;;4972393;28;94679;-70
2022/03/13 00:37:15;;;;;;;6.75;5.85;;;18.00;51.90;;;;;;4971662;28;94812;-70
2022/03/13 00:39:41;;;;;;;7.00;6.30;;;18.00;51.90;;;;;;4971539;28;92630;-69
2022/03/13 00:42:08;;;;;;;6.90;6.22;;;18.00;51.90;;;;;;4971451;28;92557;-69
2022/03/13 00:44:34;;;;;;;6.93;6.22;;;18.00;51.90;;;;;;4970349;28;96570;-69
2022/03/13 00:46:59;;;;;;;6.30;5.57;;;18.00;51.80;;;;;;4971531;28;95435;-69
2022/03/13 00:49:26;;;;;;;7.82;6.10;;;17.90;51.70;;;;;;4971663;28;92534;-70
2022/03/13 00:51:52;;;;;;;6.75;6.05;;;17.90;51.70;;;;;;4972489;28;92654;-69
2022/03/13 00:54:17;;;;;;;8.43;6.38;;;18.00;51.70;;;;;;4970832;28;105221;-69
2022/03/13 00:56:43;;;;;;;6.68;5.97;;;17.90;51.70;;;;;;4971072;28;96761;-69
2022/03/13 00:59:08;;;;;;;7.00;6.18;;;17.90;51.70;;;;;;4971462;28;92422;-69
2022/03/13 01:01:34;;;;;;;6.72;5.93;;;17.90;51.70;;;;;;4971836;28;94249;-69
2022/03/13 01:03:59;;;;;;;6.20;5.45;;;17.90;51.60;;;;;;4971896;28;101862;-69
2022/03/13 01:06:25;;;;;;;6.78;5.75;;;17.90;51.70;;;;;;4970751;28;93940;-70
2022/03/13 01:08:52;;;;;;;6.22;5.60;;;17.90;51.60;;;;;;4970642;28;94970;-70
2022/03/13 01:11:20;;;;;;;7.20;6.50;;;17.90;51.50;;;;;;4952416;28;92687;-69
2022/03/13 01:13:47;;;;;;;6.95;6.10;;;17.90;51.50;;;;;;4971450;28;93152;-69
2022/03/13 01:16:15;;;;;;;7.22;5.82;;;17.90;51.50;;;;;;4971532;28;93944;-71
2022/03/13 01:18:52;;;;;;;6.82;6.13;;;17.90;51.50;;;;;;4971629;28;92587;-69
2022/03/13 01:21:19;;;;;;;6.10;5.50;;;17.90;51.40;;;;;;4970911;28;92753;-70
2022/03/13 01:24:00;;;;;;;7.00;6.30;;;17.90;51.50;;;;;;4971563;28;94165;-70
2022/03/13 01:26:25;;;;;;;6.38;5.78;;;17.90;51.40;;;;;;4971873;28;94073;-69
2022/03/13 01:28:53;;;;;;;6.72;5.90;;;17.90;51.40;;;;;;4971710;28;92541;-69
2022/03/13 01:31:22;;;;;;;9.10;6.32;;;17.80;51.50;;;;;;4971666;28;92910;-69
2022/03/13 01:33:48;;;;;;;7.20;6.35;;;17.80;51.40;;;;;;4969518;28;96651;-69
2022/03/13 01:36:13;;;;;;;7.15;6.05;;;17.80;51.40;;;;;;4971175;28;96475;-70
2022/03/13 01:38:40;;;;;;;7.07;6.30;;;17.80;51.40;;;;;;4971218;28;92628;-69
2022/03/13 01:41:06;;;;;;;7.28;6.57;;;17.80;51.30;;;;;;4971797;28;92896;-70
2022/03/13 01:43:32;;;;;;;6.90;6.20;;;17.80;51.30;;;;;;4970263;28;93199;-70
2022/03/13 01:45:58;;;;;;;7.00;6.25;;;17.80;51.30;;;;;;4971679;28;93108;-69
2022/03/13 01:48:25;;;;;;;8.18;6.15;;;17.80;51.20;;;;;;4971786;28;93919;-69
2022/03/13 01:50:52;;;;;;;6.95;6.25;;;17.80;51.30;;;;;;4975291;28;91633;-68
2022/03/13 01:53:21;;;;;;;7.35;6.60;;;17.80;51.20;;;;;;4977075;28;93612;-69
2022/03/13 01:55:56;;;;;;;7.15;6.20;;;17.80;51.10;;;;;;4976867;28;94796;-69
2022/03/13 01:58:22;;;;;;;6.65;5.93;;;17.80;51.10;;;;;;4971376;28;95295;-69
2022/03/13 02:00:48;;;;;;;6.90;6.20;;;17.80;51.20;;;;;;4971785;28;92949;-69
2022/03/13 02:03:16;;;;;;;6.78;6.10;;;17.80;51.10;;;;;;4970776;28;94245;-69
2022/03/13 02:05:43;;;;;;;7.45;6.65;;;17.80;51.10;;;;;;4970168;28;93176;-69
2022/03/13 02:08:22;;;;;;;7.32;6.43;;;17.80;51.00;;;;;;4971618;28;92987;-69
2022/03/13 02:10:48;;;;;;;7.50;6.55;;;17.80;50.90;;;;;;4970657;28;93320;-69
2022/03/13 02:13:17;;;;;;;6.82;6.15;;;17.80;50.90;;;;;;4970423;28;93927;-69
2022/03/13 02:15:44;;;;;;;7.30;6.38;;;17.80;50.90;;;;;;4970465;28;93897;-69
2022/03/13 02:18:10;;;;;;;7.20;6.50;;;17.80;50.90;;;;;;4970604;28;92919;-69
2022/03/13 02:20:41;;;;;;;8.75;6.63;;;17.80;50.90;;;;;;4971218;28;92562;-69
2022/03/13 02:23:20;;;;;;;7.00;6.32;;;17.80;50.80;;;;;;4969154;28;96967;-69
2022/03/13 02:25:51;;;;;;;7.28;6.50;;;17.80;50.80;;;;;;4970234;28;95032;-69
2022/03/13 02:28:22;;;;;;;6.97;6.28;;;17.80;50.80;;;;;;4970047;28;92870;-69
2022/03/13 02:30:49;;;;;;;6.95;6.18;;;17.80;50.80;;;;;;4970289;28;93148;-69
2022/03/13 02:33:18;;;;;;;7.50;6.80;;;17.70;50.80;;;;;;4969828;28;93927;-69
2022/03/13 02:35:50;;;;;;;7.32;6.60;;;17.80;50.80;;;;;;4969219;28;94249;-69
2022/03/13 02:38:16;;;;;;;7.38;6.57;;;17.80;50.80;;;;;;4970354;28;92586;-69
2022/03/13 02:40:42;;;;;;;6.72;6.07;;;17.80;50.90;;;;;;4971184;28;92010;-69
2022/03/13 02:43:08;;;;;;;7.07;6.15;;;17.70;50.70;;;;;;4970777;28;93082;-69
2022/03/13 02:45:36;;;;;;;7.47;6.60;;;17.70;50.60;;;;;;4970076;28;95051;-69
2022/03/13 02:48:04;;;;;;;6.70;6.00;;;17.70;50.70;;;;;;4969936;28;95287;-68
2022/03/13 02:50:30;;;;;;;7.35;6.65;;;17.70;50.60;;;;;;4970952;28;92604;-68
2022/03/13 02:52:57;;;;;;;6.65;5.95;;;17.70;50.60;;;;;;4970217;28;94572;-68
2022/03/13 02:55:23;;;;;;;6.88;6.18;;;17.70;50.60;;;;;;4970618;28;92778;-70
2022/03/13 02:57:49;;;;;;;8.40;6.35;;;17.70;50.60;;;;;;4969513;28;92480;-69
2022/03/13 03:00:18;;;;;;;7.45;6.13;;;17.70;50.60;;;;;;4970559;28;92418;-68
2022/03/13 03:02:44;;;;;;;7.40;6.40;;;17.70;50.60;;;;;;4969428;28;92616;-68
2022/03/13 03:05:10;;;;;;;6.93;6.25;;;17.70;50.60;;;;;;4970365;28;104173;-69
2022/03/13 03:07:36;;;;;;;7.38;6.68;;;17.70;50.50;;;;;;4970782;28;92958;-69
2022/03/13 03:10:04;;;;;;;7.10;6.40;;;17.70;50.50;;;;;;4971055;28;92526;-68
2022/03/13 03:12:31;;;;;;;6.90;6.20;;;17.70;50.60;;;;;;4967734;28;98226;-69
2022/03/13 03:14:58;;;;;;;6.90;6.20;;;17.70;50.50;;;;;;4970023;28;96071;-69
2022/03/13 03:17:23;;;;;;;7.28;6.25;;;17.70;50.50;;;;;;4969275;28;93748;-68
2022/03/13 03:19:49;;;;;;;7.70;6.75;;;17.70;50.50;;;;;;4970091;28;92565;-68
2022/03/13 03:22:15;;;;;;;7.95;6.63;;;17.70;50.50;;;;;;4969585;28;94126;-70
2022/03/13 03:24:41;;;;;;;7.38;6.68;;;17.70;50.60;;;;;;4969028;28;94257;-69
2022/03/13 03:27:07;;;;;;;7.15;6.38;;;17.70;50.50;;;;;;4970519;28;92521;-69
2022/03/13 03:29:33;;;;;;;7.20;6.45;;;17.70;50.50;;;;;;4971320;28;92061;-68
2022/03/13 03:32:02;;;;;;;6.95;6.25;;;17.70;50.40;;;;;;4972063;28;94139;-69
2022/03/13 03:34:28;;;;;;;7.40;6.60;;;17.70;50.40;;;;;;4972203;28;94378;-69
2022/03/13 03:36:59;;;;;;;7.75;6.55;;;17.70;50.50;;;;;;4975051;28;95434;-68
2022/03/13 03:39:27;;;;;;;7.38;6.68;;;17.60;50.40;;;;;;4974551;28;92608;-69
2022/03/13 03:41:53;;;;;;;7.70;6.90;;;17.70;50.40;;;;;;4973969;28;94643;-68
2022/03/13 03:44:21;;;;;;;7.45;6.70;;;17.60;50.40;;;;;;4973331;28;92742;-70
2022/03/13 03:46:47;;;;;;;7.60;6.85;;;17.60;50.40;;;;;;4972762;28;92872;-69
2022/03/13 03:49:13;;;;;;;7.63;6.68;;;17.60;50.40;;;;;;4972597;28;92882;-69
2022/03/13 03:51:39;;;;;;;7.15;6.45;;;17.60;50.30;;;;;;4972972;28;93800;-70
2022/03/13 03:54:05;;;;;;;7.43;6.63;;;17.60;50.30;;;;;;4973802;28;92884;-69
2022/03/13 03:56:31;;;;;;;7.60;6.78;;;17.60;50.30;;;;;;4972606;28;92551;-69
2022/03/13 03:58:57;;;;;;;7.72;6.78;;;17.60;50.30;;;;;;4972689;28;92821;-69
2022/03/13 04:01:23;;;;;;;8.02;7.13;;;17.60;50.30;;;;;;4971236;28;95329;-70
2022/03/13 04:03:49;;;;;;;7.53;6.72;;;17.60;50.30;;;;;;4973664;28;95102;-69
2022/03/13 04:06:15;;;;;;;8.07;7.28;;;17.60;50.30;;;;;;4972684;28;92554;-69
2022/03/13 04:08:41;;;;;;;7.60;6.90;;;17.60;50.30;;;;;;4972247;28;94008;-70
2022/03/13 04:11:08;;;;;;;7.40;6.68;;;17.60;50.20;;;;;;4972726;28;94294;-69
2022/03/13 04:13:38;;;;;;;8.02;7.22;;;17.60;50.20;;;;;;4971497;28;94484;-69
2022/03/13 04:16:07;;;;;;;8.52;7.63;;;17.60;50.20;;;;;;4972532;28;93001;-69
2022/03/13 04:18:33;;;;;;;7.35;6.65;;;17.60;50.20;;;;;;4972095;28;91783;-69
2022/03/13 04:20:59;;;;;;;8.20;7.30;;;17.60;50.20;;;;;;4972504;28;92942;-69
2022/03/13 04:23:26;;;;;;;7.35;6.55;;;17.60;50.20;;;;;;4971915;28;94481;-71
2022/03/13 04:25:52;;;;;;;7.45;6.75;;;17.50;50.10;;;;;;4971553;28;94971;-69
2022/03/13 04:28:18;;;;;;;8.05;7.22;;;17.50;50.10;;;;;;4973077;28;92582;-69
2022/03/13 04:30:44;;;;;;;8.27;7.45;;;17.50;50.10;;;;;;4972426;28;94122;-69
2022/03/13 04:33:09;;;;;;;7.85;7.05;;;17.50;50.10;;;;;;4971663;28;93919;-69
2022/03/13 04:35:35;;;;;;;8.65;7.00;;;17.50;50.00;;;;;;4971708;28;92817;-68
2022/03/13 04:38:01;;;;;;;7.07;6.38;;;17.50;50.10;;;;;;4973110;28;93152;-68
2022/03/13 04:40:26;;;;;;;7.93;7.10;;;17.50;50.10;;;;;;4971542;28;93972;-69
2022/03/13 04:42:52;;;;;;;7.90;7.10;;;17.50;50.10;;;;;;4971954;28;92808;-69
2022/03/13 04:45:18;;;;;;;7.90;7.10;;;17.50;50.10;;;;;;4953018;28;92813;-69
2022/03/13 04:47:44;;;;;;;9.10;7.40;;;17.50;50.10;;;;;;4970705;28;92441;-69
2022/03/13 04:50:10;;;;;;;8.13;6.97;;;17.50;50.00;;;;;;4969968;28;96795;-69
2022/03/13 04:52:36;;;;;;;7.78;7.00;;;17.50;50.10;;;;;;4971740;28;96206;-70
2022/03/13 04:55:02;;;;;;;8.73;7.03;;;17.50;50.00;;;;;;4971536;28;93633;-69
2022/03/13 04:57:28;;;;;;;9.60;7.72;;;17.50;50.00;;;;;;4970992;28;93315;-69
2022/03/13 04:59:54;;;;;;;8.00;7.10;;;17.50;50.10;;;;;;4971291;28;94343;-69
2022/03/13 05:02:19;;;;;;;7.82;7.10;;;17.50;50.00;;;;;;4970666;28;93901;-69
2022/03/13 05:04:45;;;;;;;8.80;7.80;;;17.50;50.10;;;;;;4970657;28;92584;-70
2022/03/13 05:07:11;;;;;;;9.27;7.43;;;17.50;50.10;;;;;;4971550;28;92022;-69
2022/03/13 05:09:37;;;;;;;9.50;7.80;;;17.50;50.10;;;;;;4971643;28;94393;-70
2022/03/13 05:12:10;;;;;;;8.10;7.30;;;17.50;50.00;;;;;;4971428;28;93782;-69
2022/03/13 05:14:36;;;;;;;8.82;7.40;;;17.50;50.00;;;;;;4971135;28;95011;-69
2022/03/13 06:20:49;;;;;;;9.00;7.50;;;17.90;50.00;;;;;;4910317;28;93020;-66
2022/03/13 06:23:15;;;;;;;8.90;7.72;;;18.00;49.80;;;;;;4912834;28;92638;-67
2022/03/13 06:25:43;;;;;;;9.05;8.00;;;18.00;49.60;;;;;;4913760;28;93221;-66
2022/03/13 06:28:10;;;;;;;8.85;7.57;;;18.10;49.50;;;;;;4912622;28;94551;-66
2022/03/13 06:30:36;;;;;;;9.63;7.40;;;18.10;49.30;;;;;;4912431;28;93021;-66
2022/03/13 06:33:02;;;;;;;8.57;7.18;;;18.10;49.20;;;;;;4913592;28;92520;-66
2022/03/13 06:35:27;;;;;;;8.65;6.85;;;18.20;49.10;;;;;;4911675;28;94999;-66
2022/03/13 06:37:55;;;;;;;7.72;6.85;;;18.20;49.10;;;;;;4912262;28;95027;-66
2022/03/13 06:40:23;;;;;;;12.48;6.93;;;18.30;49.10;;;;;;4912635;28;92910;-66
2022/03/13 06:42:53;;;;;;;8.55;6.93;;;18.30;48.90;;;;;;4913039;28;93000;-67
2022/03/13 06:45:19;;;;;;;8.13;6.50;;;18.40;48.90;;;;;;4913428;28;94941;-66
2022/03/13 06:47:49;;;;;;;7.70;6.68;;;18.40;48.70;;;;;;4913130;28;92985;-67
2022/03/13 06:50:18;;;;;;;8.60;6.95;;;18.40;48.80;;;;;;4912239;28;92522;-67
2022/03/13 06:52:46;;;;;;;7.78;6.80;;;18.40;48.50;;;;;;4913484;28;91778;-67
2022/03/13 06:55:14;;;;;;;8.52;6.50;;;18.40;48.50;;;;;;4912139;28;93679;-67
2022/03/13 06:57:41;;;;;;;8.07;6.50;;;18.50;48.50;;;;;;4912074;28;94153;-66
2022/03/13 07:00:08;;;;;;;7.82;6.57;;;18.50;48.40;;;;;;4911309;28;95496;-67
2022/03/13 07:02:33;;;;;;;7.55;6.45;;;18.50;48.30;;;;;;4911829;28;93007;-67
2022/03/13 07:04:59;;;;;;;8.98;6.65;;;18.50;48.20;;;;;;4912291;28;93056;-68
2022/03/13 07:07:24;;;;;;;6.97;6.28;;;18.60;48.50;;;;;;4911935;28;94656;-66
2022/03/13 07:09:51;;;;;;;7.00;6.28;;;18.60;48.50;;;;;;4912021;28;92506;-66
2022/03/13 07:12:19;;;;;;;8.23;6.63;;;18.60;48.70;;;;;;4911683;28;92809;-67
2022/03/13 07:14:48;;;;;;;7.53;6.38;;;18.60;48.60;;;;;;4911592;28;94744;-66
2022/03/13 07:17:15;;;;;;;7.45;5.90;;;18.60;48.40;;;;;;4910645;28;93219;-65
2022/03/13 07:19:43;;;;;;;7.13;6.20;;;18.60;48.30;;;;;;4921729;28;93032;-67
2022/03/13 07:22:10;;;;;;;7.05;6.22;;;18.70;48.40;;;;;;4931657;28;92554;-66
2022/03/13 07:24:36;;;;;;;6.85;6.15;;;18.70;48.40;;;;;;4929723;28;95916;-65
2022/03/13 07:27:02;;;;;;;9.73;6.15;;;18.70;48.40;;;;;;4931378;28;93994;-66
2022/03/13 07:29:27;;;;;;;7.60;6.40;;;18.70;48.20;;;;;;4930488;28;92518;-66
2022/03/13 08:59:15;;;;;;;7.15;5.88;;;18.40;49.40;;;;;;5070658;22;94232;-67
2022/03/13 09:01:41;;;;;;;6.93;6.22;;;18.40;49.50;;;;;;4973702;28;94479;-65
2022/03/13 09:04:07;;;;;;;6.82;6.03;;;18.40;49.50;;;;;;4973032;28;92806;-65
2022/03/13 09:06:32;;;;;;;7.45;6.28;;;18.40;49.30;;;;;;4972845;28;92741;-66
2022/03/13 09:08:59;;;;;;;6.97;6.07;;;18.40;49.30;;;;;;4974481;28;92515;-67
2022/03/13 09:11:24;;;;;;;7.90;6.03;;;18.40;49.40;;;;;;4974792;28;95358;-69
2022/03/13 09:13:50;;;;;;;7.07;6.28;;;18.40;49.40;;;;;;4971957;28;99713;-66
2022/03/13 09:16:15;;;;;;;7.93;6.55;;;18.40;49.30;;;;;;4970191;28;104193;-65
2022/03/13 09:18:41;;;;;;;7.40;6.30;;;18.40;49.10;;;;;;4971984;28;93702;-65
2022/03/13 09:21:08;;;;;;;7.07;6.35;;;18.40;49.30;;;;;;4971463;28;93344;-66
2022/03/13 09:23:34;;;;;;;7.55;6.03;;;18.40;49.20;;;;;;4971531;28;94592;-66
2022/03/13 09:25:59;;;;;;;9.68;6.53;;;18.40;49.30;;;;;;4971945;28;92549;-66
2022/03/13 09:28:26;;;;;;;17.83;7.88;;;18.30;49.50;;;;;;4972610;28;91743;-66
2022/03/13 09:30:52;;;;;;;22.00;7.30;;;18.30;49.80;;;;;;4971224;28;94131;-66
2022/03/13 09:33:17;;;;;;;19.70;7.55;;;18.40;50.00;;;;;;4970855;28;93012;-66
2022/03/13 09:35:43;;;;;;;18.95;7.72;;;18.40;50.20;;;;;;4970417;28;95303;-66
2022/03/13 09:38:10;;;;;;;18.42;8.15;;;18.40;51.00;;;;;;4970783;28;93050;-69
2022/03/13 09:40:36;;;;;;;18.65;7.88;;;18.50;52.90;;;;;;4970003;28;106762;-66
2022/03/13 09:43:05;;;;;;;15.90;7.68;;;18.60;53.50;;;;;;4970468;28;93398;-67
2022/03/13 09:45:32;;;;;;;20.08;8.30;;;18.60;53.60;;;;;;4970464;28;92458;-66
2022/03/13 09:47:58;;;;;;;16.55;7.95;;;18.70;53.80;;;;;;4970803;28;93111;-66
2022/03/13 09:50:24;;;;;;;18.25;8.57;;;18.70;53.90;;;;;;4970900;28;93023;-66
2022/03/13 09:52:50;;;;;;;15.93;6.95;;;18.70;53.80;;;;;;4970594;28;93375;-67
2022/03/13 09:55:16;;;;;;;19.35;7.88;;;18.70;53.90;;;;;;4970847;28;92530;-65
2022/03/13 09:57:46;;;;;;;13.27;6.95;;;18.70;53.90;;;;;;4970127;28;92549;-65
2022/03/13 10:00:18;;;;;;;16.85;7.50;;;18.70;54.00;;;;;;4967759;28;97553;-66
2022/03/13 10:02:44;;;;;;;14.73;7.28;;;18.60;53.90;;;;;;4970316;28;96487;-67
2022/03/13 10:05:13;;;;;;;13.75;7.50;;;18.60;54.00;;;;;;4971108;28;92745;-66
2022/03/13 10:08:00;;;;;;;13.55;7.03;;;18.60;54.10;;;;;;4970759;28;92533;-65
2022/03/13 10:10:32;;;;;;;13.75;7.43;;;18.60;54.10;;;;;;4970405;28;94121;-68
2022/03/13 10:13:00;;;;;;;23.55;8.18;;;18.60;54.20;;;;;;4970502;28;92944;-65
2022/03/13 10:15:25;;;;;;;19.08;7.18;;;18.50;54.30;;;;;;4970506;28;92518;-66
2022/03/13 10:17:51;;;;;;;25.67;7.93;;;18.50;54.40;;;;;;4970210;28;92054;-66
2022/03/13 10:20:20;;;;;;;15.00;7.60;;;18.60;54.80;;;;;;4969411;28;92576;-66
2022/03/13 10:22:48;;;;;;;18.85;7.85;;;18.60;54.80;;;;;;4970259;28;94118;-66
2022/03/13 10:25:28;;;;;;;17.85;7.13;;;18.70;54.80;;;;;;4969652;28;95210;-66
2022/03/13 10:27:53;;;;;;;17.65;7.45;;;18.70;54.90;;;;;;4971305;28;92853;-65
2022/03/13 10:30:20;;;;;;;15.00;6.88;;;18.70;54.80;;;;;;4971264;28;93105;-65
2022/03/13 10:32:55;;;;;;;26.58;7.38;;;18.90;54.90;;;;;;4970209;28;93048;-65
2022/03/13 10:35:20;;;;;;;18.40;6.55;;;18.90;54.80;;;;;;4970907;28;93269;-66
2022/03/13 10:37:46;;;;;;;14.05;6.30;;;19.00;54.80;;;;;;4970402;28;93058;-68
2022/03/13 10:40:24;;;;;;;12.07;6.78;;;19.00;54.20;;;;;;4969407;28;92796;-66
2022/03/13 10:42:51;;;;;;;12.77;6.32;;;19.10;53.90;;;;;;4962188;28;92751;-65
2022/03/13 10:45:39;;;;;;;12.18;5.97;;;19.20;53.60;;;;;;4953238;28;92524;-66
2022/03/13 10:48:28;;;;;;;13.70;6.10;;;19.20;53.40;;;;;;4954729;28;93228;-65
2022/03/13 10:50:58;;;;;;;14.00;6.28;;;19.20;53.30;;;;;;4953718;28;96866;-65
2022/03/13 10:53:31;;;;;;;11.40;6.07;;;19.20;53.30;;;;;;4963290;28;96488;-65
2022/03/13 10:56:10;;;;;;;12.13;6.43;;;19.20;53.20;;;;;;4950384;28;92787;-66
2022/03/13 10:58:40;;;;;;;13.48;6.22;;;19.20;53.20;;;;;;4951289;28;92868;-66
2022/03/13 11:01:09;;;;;;;12.35;6.20;;;19.20;53.20;;;;;;4958285;28;94217;-67
2022/03/13 11:03:53;;;;;;;11.98;5.47;;;19.20;53.20;;;;;;4952158;28;93750;-65
2022/03/13 11:06:20;;;;;;;14.25;6.60;;;19.20;53.00;;;;;;4960044;28;93030;-66
2022/03/13 11:08:50;;;;;;;10.63;5.47;;;19.20;53.30;;;;;;4962619;28;93343;-65
2022/03/13 11:11:16;;;;;;;9.45;5.15;;;19.20;53.30;;;;;;4953753;28;93736;-65
2022/03/13 11:13:47;;;;;;;8.80;5.50;;;19.30;53.40;;;;;;4951057;28;93672;-65
2022/03/13 11:16:19;;;;;;;12.98;5.90;;;19.30;53.30;;;;;;4949060;28;95341;-66
2022/03/13 11:18:47;;;;;;;9.55;5.22;;;19.40;53.20;;;;;;4958282;28;93254;-69
2022/03/13 11:21:12;;;;;;;11.13;5.53;;;19.40;53.40;;;;;;4936525;28;95721;-65
2022/03/13 11:23:38;;;;;;;13.70;5.82;;;19.40;53.10;;;;;;4951591;28;92808;-65
2022/03/13 11:26:07;;;;;;;9.65;5.68;;;19.50;53.00;;;;;;4951472;28;92605;-66
2022/03/13 11:28:34;;;;;;;8.25;5.35;;;19.50;52.80;;;;;;4951402;28;92917;-64
2022/03/13 11:30:59;;;;;;;9.88;5.80;;;19.50;52.70;;;;;;4950954;28;93919;-64
2022/03/13 11:33:41;;;;;;;10.32;5.45;;;19.60;52.60;;;;;;4950926;28;93777;-64
2022/03/13 11:36:46;;;;;;;8.88;5.18;;;19.60;52.60;;;;;;4956473;28;93115;-65
2022/03/13 11:39:23;;;;;;;10.73;6.07;;;19.60;52.60;;;;;;4888592;28;93129;-65
2022/03/13 11:41:49;;;;;;;14.77;6.05;;;19.60;52.60;;;;;;4887468;28;96111;-67
2022/03/13 11:44:23;;;;;;;11.07;5.55;;;19.60;52.60;;;;;;4932505;28;95410;-65
2022/03/13 11:46:53;;;;;;;9.88;5.40;;;19.60;52.70;;;;;;4969781;28;92801;-66
2022/03/13 11:49:33;;;;;;;13.27;5.45;;;19.60;52.80;;;;;;4969485;28;92871;-66
2022/03/13 11:52:11;;;;;;;11.32;5.20;;;19.60;52.80;;;;;;4969902;28;95159;-65
2022/03/13 11:57:45;;;;;;;;;;;19.50;53.00;;;;;;4958996;28;93564;-65
2022/03/13 12:00:14;;;;;;;14.68;5.60;;;19.40;53.00;;;;;;4974552;28;91839;-65
2022/03/13 12:02:46;;;;;;;8.02;5.40;;;19.40;53.10;;;;;;4973000;28;93053;-67
2022/03/13 12:05:24;;;;;;;18.40;5.43;;;19.40;53.10;;;;;;4972831;28;92556;-66
2022/03/13 12:08:08;;;;;;;10.13;5.20;;;19.40;53.20;;;;;;4971919;28;95081;-66
2022/03/13 12:10:41;;;;;;;9.65;5.22;;;19.40;53.30;;;;;;4974021;28;92879;-66
2022/03/13 12:13:29;;;;;;;11.43;5.68;;;19.40;53.40;;;;;;4972564;28;93166;-65
2022/03/13 12:15:57;;;;;;;8.98;5.45;;;19.40;53.50;;;;;;4971364;28;96200;-65
2022/03/13 12:18:28;;;;;;;11.70;4.93;;;19.40;53.60;;;;;;4972141;28;92973;-66
2022/03/13 12:21:09;;;;;;;12.45;5.22;;;19.40;53.70;;;;;;4973524;28;92760;-66
2022/03/13 12:23:36;;;;;;;14.13;5.57;;;19.40;53.90;;;;;;4972641;28;93637;-66
2022/03/13 12:26:34;;;;;;;13.90;5.60;;;19.40;54.00;;;;;;4972115;28;92725;-67
2022/03/13 12:28:59;;;;;;;22.75;5.80;;;19.40;54.20;;;;;;4972743;28;92638;-67
2022/03/13 12:31:26;;;;;;;21.05;5.53;;;19.30;54.30;;;;;;4972532;28;92691;-68
2022/03/13 12:33:53;;;;;;;18.85;5.90;;;19.30;54.60;;;;;;4970653;28;95384;-66
2022/03/13 12:36:20;;;;;;;22.27;6.07;;;19.40;54.60;;;;;;4972912;28;95145;-64
2022/03/13 12:38:53;;;;;;;19.00;6.25;;;19.40;54.40;;;;;;4972465;28;92746;-65
2022/03/13 12:41:23;;;;;;;14.40;5.90;;;19.30;55.30;;;;;;4972257;28;92703;-66
2022/03/13 12:43:57;;;;;;;18.38;5.45;;;19.30;54.20;;;;;;4971243;28;94269;-66
2022/03/13 12:46:26;;;;;;;12.70;5.80;;;19.30;54.30;;;;;;4971427;28;93433;-65
2022/03/13 12:48:53;;;;;;;14.07;5.35;;;19.30;54.20;;;;;;4971561;28;92545;-66
2022/03/13 12:51:41;;;;;;;14.27;5.28;;;19.30;54.10;;;;;;4971897;28;92076;-67
2022/03/13 12:54:13;;;;;;;16.35;5.70;;;19.30;54.10;;;;;;4970449;28;93162;-65
2022/03/13 12:56:52;;;;;;;14.90;5.75;;;19.30;54.10;;;;;;4971197;28;92866;-65
2022/03/13 12:59:29;;;;;;;12.50;5.30;;;19.20;54.00;;;;;;4968990;28;95386;-66
2022/03/13 13:02:25;;;;;;;10.80;5.70;;;19.20;53.90;;;;;;4972017;28;92944;-65
2022/03/13 13:04:55;;;;;;;10.48;5.28;;;19.20;53.70;;;;;;4969522;28;94809;-65
2022/03/13 13:07:26;;;;;;;10.57;5.20;;;19.20;53.70;;;;;;4970686;28;93038;-66
2022/03/13 13:09:52;;;;;;;14.60;5.70;;;19.20;53.60;;;;;;4971885;28;92555;-65
2022/03/13 13:12:21;;;;;;;15.25;5.15;;;19.20;53.70;;;;;;4971452;28;92901;-65
2022/03/13 13:14:50;;;;;;;11.45;5.28;;;19.20;53.60;;;;;;4972271;28;94105;-66
2022/03/13 13:17:18;;;;;;;10.02;5.13;;;19.20;53.50;;;;;;4972775;28;92674;-65
2022/03/13 13:19:47;;;;;;;11.88;5.70;;;19.30;53.50;;;;;;4972116;28;92615;-65
2022/03/13 13:22:14;;;;;;;8.43;5.22;;;19.20;53.40;;;;;;4972717;28;93891;-65
2022/03/13 13:24:57;;;;;;;10.30;5.18;;;19.20;53.40;;;;;;4970630;28;95503;-65
2022/03/13 13:27:35;;;;;;;8.82;5.35;;;19.20;53.30;;;;;;4971160;28;96258;-66
2022/03/13 13:30:34;;;;;;;6.82;5.00;;;19.20;53.30;;;;;;4972066;28;93054;-65
2022/03/13 13:33:07;;;;;;;8.77;5.10;;;19.20;53.20;;;;;;4918845;28;92774;-66
2022/03/13 13:35:53;;;;;;;9.27;5.30;;;19.20;53.30;;;;;;4972718;28;92976;-66
2022/03/13 13:38:28;;;;;;;8.23;5.28;;;19.20;53.20;;;;;;4973479;28;93091;-65
2022/03/13 13:40:57;;;;;;;10.88;4.70;;;19.20;53.10;;;;;;4972857;28;92435;-65
2022/03/13 13:43:30;;;;;;;9.25;5.57;;;19.20;53.00;;;;;;4972540;28;92266;-65
2022/03/13 13:46:10;;;;;;;13.18;5.60;;;19.20;53.00;;;;;;4972390;28;93003;-65
2022/03/13 13:48:47;;;;;;;9.50;4.97;;;19.20;52.90;;;;;;4972602;28;93093;-65
2022/03/13 13:51:22;;;;;;;7.68;4.82;;;19.30;52.90;;;;;;4970980;28;96035;-65
2022/03/13 13:54:14;;;;;;;6.70;5.03;;;19.30;52.90;;;;;;4972066;28;93048;-65
2022/03/13 13:57:00;;;;;;;8.00;4.53;;;19.30;52.80;;;;;;4972119;28;95069;-65
2022/03/13 13:59:30;;;;;;;9.30;5.00;;;19.30;52.70;;;;;;4971527;28;93382;-65
2022/03/13 14:02:02;;;;;;;7.32;5.20;;;19.30;52.70;;;;;;4971675;28;92580;-65
2022/03/13 14:04:28;;;;;;;7.82;4.95;;;19.30;52.60;;;;;;4970717;28;93808;-66
2022/03/13 14:06:54;;;;;;;11.93;5.40;;;19.30;52.60;;;;;;4972013;28;94303;-65
2022/03/13 14:09:20;;;;;;;8.45;5.05;;;19.30;52.70;;;;;;4972946;28;93966;-65
2022/03/13 14:11:47;;;;;;;14.48;6.78;;;19.30;52.60;;;;;;4972867;28;93020;-65
2022/03/13 14:14:13;;;;;;;16.73;7.93;;;19.30;51.50;;;;;;4971558;28;92924;-64
2022/03/13 14:16:43;;;;;;;18.70;8.35;;;19.30;50.10;;;;;;4970228;28;96738;-64
2022/03/13 14:19:09;;;;;;;15.57;8.57;;;19.30;49.00;;;;;;4971652;28;97253;-65
2022/03/13 14:21:36;;;;;;;14.60;8.65;;;19.30;48.00;;;;;;4972007;28;92560;-65
2022/03/13 14:24:03;;;;;;;18.02;9.43;;;19.30;47.40;;;;;;4971735;28;93120;-65
2022/03/13 14:26:29;;;;;;;23.50;9.82;;;19.30;46.90;;;;;;4971401;28;92626;-65
2022/03/13 14:28:55;;;;;;;20.60;9.90;;;19.30;46.40;;;;;;4971465;28;93825;-67
2022/03/13 14:31:21;;;;;;;15.30;9.75;;;19.30;46.10;;;;;;4971550;28;92708;-66
2022/03/13 14:33:46;;;;;;;16.27;10.57;;;19.30;45.60;;;;;;4971839;28;92294;-65
2022/03/13 14:36:12;;;;;;;18.70;9.85;;;19.30;45.20;;;;;;4970117;28;93018;-65
2022/03/13 14:38:40;;;;;;;16.83;10.38;;;19.30;45.00;;;;;;4970645;28;93772;-65
2022/03/13 14:41:05;;;;;;;16.42;9.80;;;19.20;44.70;;;;;;4970051;28;95369;-66
2022/03/13 14:43:34;;;;;;;19.00;9.70;;;19.20;44.40;;;;;;4970977;28;92578;-66
2022/03/13 14:46:00;;;;;;;15.73;9.85;;;19.20;44.20;;;;;;4952633;28;94822;-65
2022/03/13 14:48:26;;;;;;;14.55;10.18;;;19.20;44.10;;;;;;4971565;28;93340;-66
2022/03/13 14:50:52;;;;;;;15.32;10.70;;;19.20;43.70;;;;;;4972018;28;92596;-65
2022/03/13 14:53:19;;;;;;;15.45;10.05;;;19.20;43.50;;;;;;4971226;28;93398;-65
2022/03/13 14:55:45;;;;;;;12.88;10.55;;;19.20;43.30;;;;;;4969637;28;94277;-65
2022/03/13 14:58:11;;;;;;;15.30;9.88;;;19.20;43.10;;;;;;4970046;28;95402;-66
2022/03/13 15:00:36;;;;;;;13.70;10.20;;;19.20;42.90;;;;;;4970426;28;97313;-66
2022/03/13 15:03:03;;;;;;;14.82;9.98;;;19.20;42.90;;;;;;4971102;28;93210;-66
2022/03/13 15:05:29;;;;;;;18.73;10.43;;;19.20;42.70;;;;;;4968616;28;96559;-66
2022/03/13 15:07:54;;;;;;;18.92;9.88;;;19.20;42.50;;;;;;4970698;28;96360;-66
2022/03/13 15:10:20;;;;;;;56.47;11.25;;;19.20;42.50;;;;;;4971238;28;97855;-69
2022/03/13 15:12:50;;;;;;;50.25;12.40;;;19.10;42.40;;;;;;4970650;28;92968;-65
2022/03/13 15:15:16;;;;;;;24.15;10.70;;;19.10;42.30;;;;;;4970345;28;94068;-66
2022/03/13 15:17:41;;;;;;;32.22;10.88;;;19.10;42.20;;;;;;4970007;28;93882;-66
2022/03/13 15:20:08;;;;;;;28.90;11.45;;;19.00;42.10;;;;;;4969868;28;92680;-66
2022/03/13 15:22:33;;;;;;;33.60;11.45;;;19.00;42.40;;;;;;4971329;28;92165;-65
2022/03/13 15:24:59;;;;;;;41.40;11.35;;;19.00;42.90;;;;;;4969981;28;95217;-65